createdAt,value
2022-08-25T00:01:58.221Z,23.44
2022-08-25T00:04:29.601Z,23.39
2022-08-25T00:07:02.702Z,23.32
2022-08-25T00:09:32.663Z,23.34
2022-08-25T00:12:01.604Z,23.26
2022-08-25T00:14:33.550Z,23.26
2022-08-25T00:17:02.378Z,23.24
2022-08-25T00:19:34.752Z,23.18
2022-08-25T00:22:05.902Z,23.12
2022-08-25T00:24:34.044Z,23.15
2022-08-25T00:27:02.775Z,23.12
2022-08-25T00:29:32.094Z,23.03
2022-08-25T00:32:01.429Z,23.01
2022-08-25T00:34:35.127Z,22.99
2022-08-25T00:37:04.244Z,23.01
2022-08-25T00:39:32.259Z,22.94
2022-08-25T00:42:00.574Z,22.93
2022-08-25T00:44:31.518Z,22.84
2022-08-25T00:47:01.805Z,22.82
2022-08-25T00:49:35.020Z,22.76
2022-08-25T00:52:07.052Z,22.73
2022-08-25T00:54:39.099Z,22.67
2022-08-25T00:57:11.387Z,22.64
2022-08-25T00:59:40.420Z,22.60
2022-08-25T01:02:13.598Z,22.59
2022-08-25T01:04:47.580Z,22.55
2022-08-25T01:07:20.140Z,22.52
2022-08-25T01:09:51.158Z,22.53
2022-08-25T01:12:19.432Z,22.51
2022-08-25T01:14:48.028Z,22.45
2022-08-25T01:17:17.003Z,22.37
2022-08-25T01:19:46.518Z,22.35
2022-08-25T01:22:17.361Z,22.38
2022-08-25T01:24:53.379Z,22.32
2022-08-25T01:27:21.516Z,22.27
2022-08-25T01:29:49.517Z,22.24
2022-08-25T01:32:17.609Z,22.16
2022-08-25T01:34:46.703Z,22.13
2022-08-25T01:37:19.179Z,22.14
2022-08-25T01:39:47.920Z,22.01
2022-08-25T01:42:35.134Z,21.99
2022-08-25T01:45:03.218Z,21.97
2022-08-25T01:47:32.013Z,21.90
2022-08-25T01:50:00.199Z,21.90
2022-08-25T01:52:35.325Z,21.89
2022-08-25T01:55:03.440Z,21.83
2022-08-25T01:57:32.264Z,21.83
2022-08-25T02:00:01.748Z,21.82
2022-08-25T02:02:31.721Z,21.82
2022-08-25T02:05:01.128Z,21.82
2022-08-25T02:07:30.592Z,21.85
2022-08-25T02:09:59.364Z,21.71
2022-08-25T02:12:31.927Z,21.73
2022-08-25T02:15:01.752Z,21.68
2022-08-25T02:17:30.024Z,21.70
2022-08-25T02:19:58.115Z,21.67
2022-08-25T02:22:26.197Z,21.60
2022-08-25T02:24:55.656Z,21.63
2022-08-25T02:27:24.227Z,21.65
2022-08-25T02:29:52.412Z,21.66
2022-08-25T02:32:20.409Z,21.68
2022-08-25T02:34:48.523Z,21.65
2022-08-25T02:37:17.014Z,21.63
2022-08-25T02:39:45.209Z,21.61
2022-08-25T02:42:14.787Z,21.60
2022-08-25T02:44:42.855Z,21.61
2022-08-25T02:47:10.948Z,21.64
2022-08-25T02:49:38.998Z,21.63
2022-08-25T02:52:07.308Z,21.65
2022-08-25T02:54:35.642Z,21.59
2022-08-25T02:57:03.792Z,21.61
2022-08-25T02:59:33.246Z,21.61
2022-08-25T03:02:02.362Z,21.61
2022-08-25T03:04:32.000Z,21.55
2022-08-25T03:07:00.548Z,21.51
2022-08-25T03:09:28.667Z,21.50
2022-08-25T03:11:56.834Z,21.42
2022-08-25T03:14:25.020Z,21.40
2022-08-25T03:16:54.567Z,21.41
2022-08-25T03:19:23.021Z,21.37
2022-08-25T03:21:52.510Z,21.33
2022-08-25T03:24:20.524Z,21.32
2022-08-25T03:26:56.190Z,21.35
2022-08-25T03:29:25.503Z,21.24
2022-08-25T03:31:58.222Z,21.29
2022-08-25T03:34:27.916Z,21.25
2022-08-25T03:36:57.036Z,21.21
2022-08-25T03:39:26.573Z,21.22
2022-08-25T03:41:55.113Z,21.16
2022-08-25T03:44:23.721Z,21.13
2022-08-25T03:46:54.093Z,21.08
2022-08-25T03:49:24.559Z,21.06
2022-08-25T03:51:54.909Z,21.08
2022-08-25T03:54:26.176Z,21.03
2022-08-25T03:56:54.849Z,21.04
2022-08-25T03:59:23.085Z,21.02
2022-08-25T04:01:55.002Z,21.08
2022-08-25T04:04:25.067Z,21.03
2022-08-25T04:06:54.020Z,21.03
2022-08-25T04:09:22.731Z,21.01
2022-08-25T04:11:53.271Z,20.96
2022-08-25T04:14:23.764Z,20.98
2022-08-25T04:16:53.040Z,20.89
2022-08-25T04:19:22.062Z,20.86
2022-08-25T04:21:51.900Z,20.83
2022-08-25T04:24:24.753Z,20.81
2022-08-25T04:26:53.750Z,20.75
2022-08-25T04:29:24.298Z,20.79
2022-08-25T04:31:53.437Z,20.72
2022-08-25T04:34:29.350Z,20.71
2022-08-25T04:37:01.698Z,20.63
2022-08-25T04:39:30.287Z,20.66
2022-08-25T04:42:00.701Z,20.58
2022-08-25T04:44:29.688Z,20.59
2022-08-25T04:46:57.979Z,20.48
2022-08-25T04:49:26.335Z,20.46
2022-08-25T04:51:54.433Z,20.49
2022-08-25T04:54:23.992Z,20.43
2022-08-25T04:56:58.426Z,20.39
2022-08-25T04:59:30.006Z,20.39
2022-08-25T05:02:02.324Z,20.45
2022-08-25T05:04:30.993Z,20.42
2022-08-25T05:06:59.444Z,20.40
2022-08-25T05:09:32.325Z,20.36
2022-08-25T05:12:01.097Z,20.37
2022-08-25T05:14:30.180Z,20.30
2022-08-25T05:16:59.063Z,20.22
2022-08-25T05:19:27.474Z,20.24
2022-08-25T05:21:57.768Z,20.22
2022-08-25T05:24:29.648Z,20.26
2022-08-25T05:26:58.241Z,20.21
2022-08-25T05:29:27.037Z,20.20
2022-08-25T05:31:55.193Z,20.19
2022-08-25T05:34:23.311Z,20.21
2022-08-25T05:36:51.661Z,20.23
2022-08-25T05:39:19.799Z,20.21
2022-08-25T05:41:49.224Z,20.22
2022-08-25T05:44:20.533Z,20.25
2022-08-25T05:46:49.699Z,20.23
2022-08-25T05:49:17.749Z,20.27
2022-08-25T05:51:45.795Z,20.29
2022-08-25T05:54:13.925Z,20.33
2022-08-25T05:56:41.950Z,20.37
2022-08-25T05:59:11.738Z,20.41
2022-08-25T06:01:57.187Z,20.49
2022-08-25T06:04:25.634Z,20.51
2022-08-25T06:06:54.987Z,20.60
2022-08-25T06:09:24.291Z,20.68
2022-08-25T06:11:54.982Z,20.73
2022-08-25T06:14:25.340Z,20.83
2022-08-25T06:16:53.922Z,20.90
2022-08-25T06:19:23.532Z,20.98
2022-08-25T06:21:55.030Z,21.06
2022-08-25T06:24:23.685Z,21.14
2022-08-25T06:26:51.901Z,21.24
2022-08-25T06:29:20.069Z,21.32
2022-08-25T06:31:50.055Z,21.41
2022-08-25T06:34:19.222Z,21.51
2022-08-25T06:36:49.434Z,21.62
2022-08-25T06:39:18.051Z,21.72
2022-08-25T06:41:46.077Z,21.85
2022-08-25T06:44:14.478Z,21.94
2022-08-25T06:46:44.431Z,22.05
2022-08-25T06:49:14.019Z,22.16
2022-08-25T06:51:42.888Z,22.26
2022-08-25T06:54:11.244Z,22.40
2022-08-25T06:56:41.799Z,22.52
2022-08-25T06:59:11.232Z,22.65
2022-08-25T07:01:39.529Z,22.87
2022-08-25T07:04:12.923Z,22.96
2022-08-25T07:06:43.009Z,23.07
2022-08-25T07:09:12.448Z,23.25
2022-08-25T07:11:40.708Z,23.34
2022-08-25T07:14:11.079Z,23.46
2022-08-25T07:16:39.557Z,23.59
2022-08-25T07:19:10.122Z,23.77
2022-08-25T07:21:45.912Z,23.92
2022-08-25T07:24:16.446Z,24.09
2022-08-25T07:26:46.686Z,24.28
2022-08-25T07:29:17.891Z,24.47
2022-08-25T07:31:46.462Z,24.64
2022-08-25T07:34:32.341Z,24.80
2022-08-25T07:37:04.496Z,25.03
2022-08-25T07:39:35.681Z,25.23
2022-08-25T07:42:04.933Z,25.37
2022-08-25T07:44:37.337Z,25.62
2022-08-25T07:47:06.318Z,25.80
2022-08-25T07:52:23.963Z,26.27
2022-08-25T07:54:53.910Z,26.48
2022-08-25T07:57:24.668Z,26.66
2022-08-25T07:59:52.859Z,26.88
2022-08-25T08:02:21.167Z,27.15
2022-08-25T08:04:54.622Z,27.33
2022-08-25T08:07:43.370Z,27.53
2022-08-25T08:10:48.181Z,27.76
2022-08-25T08:13:03.173Z,27.89
2022-08-25T08:15:31.398Z,28.08
2022-08-25T08:17:59.892Z,28.20
2022-08-25T08:20:28.906Z,28.33
2022-08-25T08:22:58.752Z,28.36
2022-08-25T08:25:27.602Z,28.43
2022-08-25T08:27:56.762Z,28.60
2022-08-25T08:30:25.927Z,28.67
2022-08-25T08:33:11.862Z,28.71
2022-08-25T08:35:41.125Z,28.88
2022-08-25T08:38:17.334Z,28.94
2022-08-25T08:41:12.995Z,29.02
2022-08-25T08:43:43.430Z,29.13
2022-08-25T08:46:11.909Z,29.31
2022-08-25T08:48:50.640Z,29.62
2022-08-25T08:51:24.746Z,29.79
2022-08-25T08:54:00.959Z,29.90
2022-08-25T08:56:32.912Z,30.06
2022-08-25T08:59:06.229Z,30.31
2022-08-25T09:01:41.447Z,30.36
2022-08-25T09:04:14.555Z,30.58
2022-08-25T09:06:45.360Z,30.79
2022-08-25T09:09:20.107Z,30.85
2022-08-25T09:12:01.984Z,30.93
2022-08-25T09:14:46.861Z,31.17
2022-08-25T09:17:36.700Z,31.26
2022-08-25T09:20:18.978Z,31.52
2022-08-25T09:23:02.433Z,31.60
2022-08-25T09:25:54.143Z,31.65
2022-08-25T09:28:27.100Z,31.83
2022-08-25T09:31:01.054Z,31.92
2022-08-25T09:33:35.517Z,32.20
2022-08-25T09:36:06.180Z,32.17
2022-08-25T09:38:35.007Z,32.29
2022-08-25T09:41:05.268Z,32.44
2022-08-25T09:43:36.855Z,32.71
2022-08-25T09:46:12.675Z,32.99
2022-08-25T09:48:48.503Z,33.05
2022-08-25T09:51:28.422Z,33.21
2022-08-25T09:54:00.610Z,33.26
2022-08-25T09:56:32.486Z,33.36
2022-08-25T09:59:20.702Z,33.30
2022-08-25T10:02:05.360Z,33.57
2022-08-25T10:04:36.955Z,33.74
2022-08-25T10:07:20.569Z,33.94
2022-08-25T10:09:54.363Z,34.16
2022-08-25T10:12:30.209Z,34.13
2022-08-25T10:14:58.416Z,34.29
2022-08-25T10:17:29.534Z,34.60
2022-08-25T10:20:20.024Z,34.51
2022-08-25T10:22:50.803Z,34.76
2022-08-25T10:25:25.495Z,34.51
2022-08-25T10:28:11.018Z,34.71
2022-08-25T10:30:52.708Z,35.08
2022-08-25T10:33:33.608Z,35.28
2022-08-25T10:36:09.624Z,35.67
2022-08-25T10:38:42.947Z,35.54
2022-08-25T10:41:36.902Z,35.29
2022-08-25T10:44:30.657Z,35.47
2022-08-25T10:47:34.480Z,35.62
2022-08-25T10:50:11.543Z,35.54
2022-08-25T10:52:44.363Z,35.74
2022-08-25T10:55:19.855Z,36.03
2022-08-25T10:57:57.547Z,36.43
2022-08-25T11:00:33.342Z,36.36
2022-08-25T11:03:14.343Z,36.35
2022-08-25T11:05:47.207Z,36.64
2022-08-25T11:08:21.534Z,36.80
2022-08-25T11:10:54.769Z,36.74
2022-08-25T11:13:28.106Z,36.72
2022-08-25T11:16:17.168Z,36.95
2022-08-25T11:18:55.126Z,37.01
2022-08-25T11:21:34.778Z,37.28
2022-08-25T11:24:15.889Z,37.66
2022-08-25T11:26:48.827Z,37.70
2022-08-25T11:29:21.225Z,37.95
2022-08-25T11:31:54.188Z,37.95
2022-08-25T11:34:23.548Z,38.35
2022-08-25T11:36:54.598Z,38.40
2022-08-25T11:39:41.240Z,38.54
2022-08-25T11:42:20.457Z,38.65
2022-08-25T11:45:01.679Z,38.38
2022-08-25T11:47:58.477Z,38.35
2022-08-25T11:50:31.350Z,38.55
2022-08-25T11:53:00.918Z,38.84
2022-08-25T11:55:48.313Z,38.57
2022-08-25T11:58:34.050Z,38.52
2022-08-25T12:01:03.772Z,38.74
2022-08-25T12:04:12.563Z,39.08
2022-08-25T12:07:19.415Z,39.07
2022-08-25T12:10:20.920Z,39.05
2022-08-25T12:13:04.868Z,39.02
2022-08-25T12:16:00.598Z,39.22
2022-08-25T12:18:45.997Z,39.23
2022-08-25T12:21:30.242Z,39.06
2022-08-25T12:24:12.965Z,39.17
2022-08-25T12:26:50.106Z,39.21
2022-08-25T12:29:28.744Z,39.07
2022-08-25T12:32:16.627Z,38.77
2022-08-25T12:35:26.405Z,38.87
2022-08-25T12:38:04.675Z,39.02
2022-08-25T12:40:37.210Z,39.18
2022-08-25T12:43:10.164Z,39.32
2022-08-25T12:45:46.389Z,39.80
2022-08-25T12:48:43.220Z,40.18
2022-08-25T12:51:19.512Z,40.42
2022-08-25T12:53:53.367Z,40.61
2022-08-25T12:56:29.057Z,40.12
2022-08-25T12:59:12.964Z,40.22
2022-08-25T13:02:03.163Z,40.58
2022-08-25T13:04:59.387Z,40.81
2022-08-25T13:07:43.963Z,39.90
2022-08-25T13:10:35.281Z,40.12
2022-08-25T13:13:10.338Z,39.57
2022-08-25T13:15:41.593Z,39.89
2022-08-25T13:18:21.819Z,39.84
2022-08-25T13:20:52.635Z,40.24
2022-08-25T13:23:29.195Z,40.40
2022-08-25T13:25:59.406Z,40.29
2022-08-25T13:28:31.158Z,40.09
2022-08-25T13:31:06.531Z,40.60
2022-08-25T13:33:35.537Z,40.76
2022-08-25T13:36:22.334Z,40.84
2022-08-25T13:38:51.416Z,40.57
2022-08-25T13:41:28.908Z,40.80
2022-08-25T13:43:59.769Z,40.15
2022-08-25T13:46:30.112Z,40.47
2022-08-25T13:49:05.365Z,40.45
2022-08-25T13:51:34.798Z,40.82
2022-08-25T13:54:05.873Z,40.95
2022-08-25T13:56:40.947Z,41.47
2022-08-25T13:59:23.144Z,41.41
2022-08-25T14:01:54.083Z,40.98
2022-08-25T14:04:31.990Z,41.19
2022-08-25T14:07:15.384Z,40.97
2022-08-25T14:09:52.244Z,40.49
2022-08-25T14:12:41.791Z,40.82
2022-08-25T14:15:29.481Z,40.88
2022-08-25T14:18:07.185Z,41.07
2022-08-25T14:20:37.353Z,40.96
2022-08-25T14:23:09.966Z,41.27
2022-08-25T14:25:40.447Z,41.42
2022-08-25T14:28:13.716Z,40.95
2022-08-25T14:30:46.139Z,40.72
2022-08-25T14:33:16.176Z,40.70
2022-08-25T14:35:49.076Z,40.82
2022-08-25T14:38:18.651Z,40.87
2022-08-25T14:40:50.318Z,40.83
2022-08-25T14:43:23.800Z,41.06
2022-08-25T14:45:52.874Z,40.75
2022-08-25T14:48:26.930Z,40.91
2022-08-25T14:50:57.165Z,40.59
2022-08-25T14:53:25.307Z,40.69
2022-08-25T14:55:58.699Z,40.63
2022-08-25T14:58:33.815Z,40.88
2022-08-25T15:01:04.328Z,40.60
2022-08-25T15:03:35.177Z,39.87
2022-08-25T15:06:04.390Z,40.18
2022-08-25T15:08:50.328Z,39.46
2022-08-25T15:11:18.982Z,39.62
2022-08-25T15:13:49.762Z,39.56
2022-08-25T15:16:24.829Z,39.04
2022-08-25T15:19:03.127Z,39.16
2022-08-25T15:21:35.597Z,39.05
2022-08-25T15:24:04.104Z,38.71
2022-08-25T15:26:44.972Z,38.59
2022-08-25T15:29:15.747Z,38.53
2022-08-25T15:31:43.877Z,38.13
2022-08-25T15:34:12.458Z,37.85
2022-08-25T15:36:41.498Z,37.75
2022-08-25T15:39:10.273Z,37.65
2022-08-25T15:41:38.662Z,37.52
2022-08-25T15:44:08.160Z,37.26
2022-08-25T15:46:39.449Z,37.08
2022-08-25T15:49:07.775Z,37.04
2022-08-25T15:51:36.825Z,36.81
2022-08-25T15:54:05.468Z,36.70
2022-08-25T15:56:33.513Z,36.23
2022-08-25T15:59:05.438Z,36.22
2022-08-25T16:01:38.329Z,36.11
2022-08-25T16:04:06.483Z,35.84
2022-08-25T16:06:35.020Z,35.90
2022-08-25T16:09:03.284Z,35.74
2022-08-25T16:11:34.816Z,35.46
2022-08-25T16:14:03.602Z,35.36
2022-08-25T16:16:33.406Z,35.37
2022-08-25T16:19:03.009Z,35.18
2022-08-25T16:21:35.536Z,35.08
2022-08-25T16:24:07.909Z,34.89
2022-08-25T16:26:36.888Z,34.60
2022-08-25T16:29:06.601Z,34.43
2022-08-25T16:31:36.015Z,34.27
2022-08-25T16:34:05.615Z,34.27
2022-08-25T16:36:34.654Z,34.21
2022-08-25T16:39:02.807Z,34.19
2022-08-25T16:41:35.710Z,34.08
2022-08-25T16:44:07.728Z,33.90
2022-08-25T16:46:40.718Z,33.85
2022-08-25T16:49:11.859Z,33.73
2022-08-25T16:51:41.168Z,33.69
2022-08-25T16:54:30.443Z,33.51
2022-08-25T16:56:58.751Z,33.43
2022-08-25T16:59:27.316Z,33.31
2022-08-25T17:01:55.644Z,33.17
2022-08-25T17:04:27.502Z,33.06
2022-08-25T17:07:01.723Z,33.03
2022-08-25T17:09:30.734Z,32.92
2022-08-25T17:11:58.869Z,32.83
2022-08-25T17:14:27.003Z,32.74
2022-08-25T17:16:55.498Z,32.63
2022-08-25T17:19:25.939Z,32.48
2022-08-25T17:21:55.172Z,32.40
2022-08-25T17:24:29.379Z,32.32
2022-08-25T17:27:01.462Z,32.20
2022-08-25T17:29:30.400Z,32.14
2022-08-25T17:31:59.495Z,32.05
2022-08-25T17:34:31.730Z,31.90
2022-08-25T17:37:00.089Z,31.85
2022-08-25T17:39:28.493Z,31.65
2022-08-25T17:41:56.630Z,31.51
2022-08-25T17:44:24.867Z,31.33
2022-08-25T17:46:53.051Z,31.27
2022-08-25T17:49:21.479Z,31.15
2022-08-25T17:51:52.605Z,31.00
2022-08-25T17:54:20.710Z,30.91
2022-08-25T17:56:48.871Z,30.77
2022-08-25T17:59:18.844Z,30.63
2022-08-25T18:01:50.109Z,30.47
2022-08-25T18:04:23.749Z,30.25
2022-08-25T18:06:58.602Z,30.04
2022-08-25T18:09:26.820Z,29.89
2022-08-25T18:11:55.026Z,29.67
2022-08-25T18:14:25.546Z,29.48
2022-08-25T18:16:54.366Z,29.39
2022-08-25T18:19:22.648Z,29.20
2022-08-25T18:21:51.950Z,29.04
2022-08-25T18:24:23.647Z,28.95
2022-08-25T18:26:52.050Z,28.85
2022-08-25T18:29:20.766Z,28.78
2022-08-25T18:31:49.398Z,28.63
2022-08-25T18:34:19.570Z,28.53
2022-08-25T18:36:47.720Z,28.39
2022-08-25T18:39:34.868Z,28.32
2022-08-25T18:42:06.576Z,28.10
2022-08-25T18:44:35.573Z,28.02
2022-08-25T18:47:07.340Z,27.78
2022-08-25T18:49:37.684Z,27.72
2022-08-25T18:52:06.470Z,27.65
2022-08-25T18:54:36.106Z,27.48
2022-08-25T18:57:08.796Z,27.41
2022-08-25T18:59:37.225Z,27.38
2022-08-25T19:02:05.756Z,27.32
2022-08-25T19:04:34.025Z,27.23
2022-08-25T19:07:02.904Z,27.18
2022-08-25T19:09:32.383Z,27.00
2022-08-25T19:12:01.800Z,27.02
2022-08-25T19:14:31.677Z,26.95
2022-08-25T19:17:01.032Z,26.71
2022-08-25T19:19:29.463Z,26.59
2022-08-25T19:21:58.227Z,26.54
2022-08-25T19:24:28.379Z,26.43
2022-08-25T19:26:56.929Z,26.35
2022-08-25T19:29:26.494Z,26.28
2022-08-25T19:32:01.039Z,26.22
2022-08-25T19:34:32.912Z,26.15
2022-08-25T19:37:04.286Z,26.13
2022-08-25T19:39:33.356Z,26.12
2022-08-25T19:42:03.209Z,26.05
2022-08-25T19:44:31.897Z,26.02
2022-08-25T19:47:01.647Z,26.02
2022-08-25T19:49:34.258Z,25.92
2022-08-25T19:52:10.675Z,25.60
2022-08-25T19:54:44.259Z,25.67
2022-08-25T19:57:20.812Z,25.60
2022-08-25T19:59:57.668Z,25.60
2022-08-25T20:02:30.212Z,25.67
2022-08-25T20:05:00.440Z,25.66
2022-08-25T20:07:30.707Z,25.61
2022-08-25T20:10:00.180Z,25.57
2022-08-25T20:12:28.899Z,25.52
2022-08-25T20:14:57.611Z,25.39
2022-08-25T20:17:28.485Z,25.37
2022-08-25T20:19:59.369Z,25.42
2022-08-25T20:22:28.801Z,25.27
2022-08-25T20:24:58.899Z,25.26
2022-08-25T20:27:32.340Z,25.23
2022-08-25T20:30:02.870Z,25.23
2022-08-25T20:32:33.799Z,25.14
2022-08-25T20:35:02.967Z,25.07
2022-08-25T20:37:33.899Z,25.07
2022-08-25T20:40:02.573Z,25.08
2022-08-25T20:42:31.049Z,24.91
2022-08-25T20:44:59.724Z,24.82
2022-08-25T20:47:29.892Z,24.77
2022-08-25T20:50:03.372Z,24.71
2022-08-25T20:52:35.495Z,24.72
2022-08-25T20:55:04.027Z,24.67
2022-08-25T20:57:33.252Z,24.68
2022-08-25T21:00:02.486Z,24.61
2022-08-25T21:02:31.179Z,24.50
2022-08-25T21:05:01.956Z,24.28
2022-08-25T21:07:30.676Z,24.20
2022-08-25T21:09:58.903Z,24.22
2022-08-25T21:12:28.072Z,24.27
2022-08-25T21:14:56.145Z,24.17
2022-08-25T21:17:25.243Z,24.06
2022-08-25T21:19:53.265Z,23.98
2022-08-25T21:22:23.046Z,23.94
2022-08-25T21:24:51.600Z,23.95
2022-08-25T21:27:20.077Z,23.95
2022-08-25T21:29:55.239Z,23.83
2022-08-25T21:32:24.682Z,23.85
2022-08-25T21:34:54.542Z,23.78
2022-08-25T21:37:25.059Z,23.69
2022-08-25T21:39:53.903Z,23.68
2022-08-25T21:42:23.939Z,23.66
2022-08-25T21:44:54.233Z,23.53
2022-08-25T21:47:23.280Z,23.50
2022-08-25T21:49:51.769Z,23.48
2022-08-25T21:52:20.857Z,23.51
2022-08-25T21:54:50.302Z,23.47
2022-08-25T21:57:23.607Z,23.39
2022-08-25T21:59:52.039Z,23.32
2022-08-25T22:02:23.216Z,23.30
2022-08-25T22:04:52.912Z,23.24
2022-08-25T22:07:24.721Z,23.18
2022-08-25T22:09:54.988Z,23.18
2022-08-25T22:12:23.508Z,23.13
2022-08-25T22:14:53.191Z,23.04
2022-08-25T22:17:24.209Z,23.00
2022-08-25T22:19:53.676Z,23.03
2022-08-25T22:22:22.727Z,22.92
2022-08-25T22:24:52.495Z,22.80
2022-08-25T22:27:23.354Z,22.73
2022-08-25T22:29:52.520Z,22.76
2022-08-25T22:32:21.172Z,22.69
2022-08-25T22:34:49.872Z,22.56
2022-08-25T22:37:18.919Z,22.58
2022-08-25T22:39:47.393Z,22.61
2022-08-25T22:42:16.268Z,22.62
2022-08-25T22:44:45.638Z,22.50
2022-08-25T22:47:13.791Z,22.37
2022-08-25T22:49:41.913Z,22.43
2022-08-25T22:52:12.923Z,22.34
2022-08-25T22:54:42.495Z,22.28
2022-08-25T22:57:11.777Z,22.30
2022-08-25T22:59:40.618Z,22.29
2022-08-25T23:02:10.148Z,22.19
2022-08-25T23:04:41.229Z,22.21
2022-08-25T23:07:10.062Z,22.04
2022-08-25T23:09:38.477Z,22.11
2022-08-25T23:12:07.543Z,22.11
2022-08-25T23:14:36.715Z,22.14
2022-08-25T23:17:07.591Z,22.03
2022-08-25T23:19:39.967Z,22.05
2022-08-25T23:22:10.537Z,22.01
2022-08-25T23:24:42.554Z,21.93
2022-08-25T23:27:13.480Z,21.83
2022-08-25T23:29:43.909Z,21.74
2022-08-25T23:32:14.485Z,21.69
2022-08-25T23:34:46.734Z,21.75
2022-08-25T23:37:16.165Z,21.69
2022-08-25T23:39:49.902Z,21.66
2022-08-25T23:42:19.270Z,21.64
2022-08-25T23:44:47.586Z,21.57
2022-08-25T23:47:15.988Z,21.49
2022-08-25T23:49:45.699Z,21.55
2022-08-25T23:52:17.200Z,21.49
2022-08-25T23:54:46.429Z,21.35
2022-08-25T23:57:14.803Z,21.35
2022-08-25T23:59:43.336Z,21.41
